sensor_id;sensor_type;location;lat;lon;timestamp;pressure;altitude;pressure_sealevel;temperature;humidity
73910;BME280;62245;48.070;7.874;2024-01-30T00:00:59;100443.47;;;5.48;77.21
73910;BME280;62245;48.070;7.874;2024-01-30T00:03:24;100444.88;;;5.52;77.17
73910;BME280;62245;48.070;7.874;2024-01-30T00:05:49;100449.59;;;5.48;77.15
73910;BME280;62245;48.070;7.874;2024-01-30T00:08:14;100436.00;;;5.24;77.68
73910;BME280;62245;48.070;7.874;2024-01-30T00:10:40;100447.41;;;5.24;77.87
73910;BME280;62245;48.070;7.874;2024-01-30T00:13:05;100443.22;;;5.22;78.36
73910;BME280;62245;48.070;7.874;2024-01-30T00:15:30;100437.94;;;5.31;77.78
73910;BME280;62245;48.070;7.874;2024-01-30T00:17:56;100452.44;;;5.27;77.92
73910;BME280;62245;48.070;7.874;2024-01-30T00:20:21;100447.16;;;5.18;78.16
73910;BME280;62245;48.070;7.874;2024-01-30T00:22:47;100447.69;;;5.21;77.93
73910;BME280;62245;48.070;7.874;2024-01-30T00:25:12;100451.88;;;5.14;78.64
73910;BME280;62245;48.070;7.874;2024-01-30T00:27:38;100434.88;;;5.17;78.32
73910;BME280;62245;48.070;7.874;2024-01-30T00:30:03;100444.50;;;5.27;78.62
73910;BME280;62245;48.070;7.874;2024-01-30T00:32:30;100455.22;;;5.36;78.18
73910;BME280;62245;48.070;7.874;2024-01-30T00:34:55;100442.41;;;5.21;78.50
73910;BME280;62245;48.070;7.874;2024-01-30T00:37:20;100446.84;;;5.30;78.34
73910;BME280;62245;48.070;7.874;2024-01-30T00:39:45;100455.22;;;5.36;78.41
73910;BME280;62245;48.070;7.874;2024-01-30T00:42:11;100448.25;;;5.25;78.71
73910;BME280;62245;48.070;7.874;2024-01-30T00:44:36;100457.84;;;5.36;78.40
73910;BME280;62245;48.070;7.874;2024-01-30T00:47:04;100452.13;;;5.30;78.69
73910;BME280;62245;48.070;7.874;2024-01-30T00:49:30;100462.72;;;5.30;78.92
73910;BME280;62245;48.070;7.874;2024-01-30T00:51:55;100463.56;;;5.31;79.02
73910;BME280;62245;48.070;7.874;2024-01-30T00:54:20;100458.53;;;5.38;78.88
73910;BME280;62245;48.070;7.874;2024-01-30T00:56:46;100458.25;;;5.41;78.88
73910;BME280;62245;48.070;7.874;2024-01-30T00:59:11;100447.09;;;5.47;78.63
73910;BME280;62245;48.070;7.874;2024-01-30T04:00:29;100430.41;;;9.37;59.48
73910;BME280;62245;48.070;7.874;2024-01-30T04:02:54;100426.41;;;9.49;59.07
73910;BME280;62245;48.070;7.874;2024-01-30T04:05:20;100427.22;;;9.66;58.79
73910;BME280;62245;48.070;7.874;2024-01-30T04:07:45;100428.72;;;9.68;58.60
73910;BME280;62245;48.070;7.874;2024-01-30T04:10:10;100424.69;;;9.72;58.91
73910;BME280;62245;48.070;7.874;2024-01-30T04:12:36;100418.03;;;9.84;57.70
73910;BME280;62245;48.070;7.874;2024-01-30T04:15:01;100438.50;;;9.92;57.44
73910;BME280;62245;48.070;7.874;2024-01-30T04:17:27;100424.25;;;10.08;57.13
73910;BME280;62245;48.070;7.874;2024-01-30T04:19:54;100428.00;;;9.91;57.49
73910;BME280;62245;48.070;7.874;2024-01-30T04:22:19;100437.03;;;9.73;58.24
73910;BME280;62245;48.070;7.874;2024-01-30T04:24:44;100449.41;;;9.50;60.46
73910;BME280;62245;48.070;7.874;2024-01-30T04:27:09;100445.41;;;9.14;61.97
73910;BME280;62245;48.070;7.874;2024-01-30T04:29:35;100443.88;;;8.87;62.74
73910;BME280;62245;48.070;7.874;2024-01-30T04:32:00;100453.97;;;8.67;63.63
73910;BME280;62245;48.070;7.874;2024-01-30T04:34:25;100458.94;;;8.54;64.39
73910;BME280;62245;48.070;7.874;2024-01-30T04:36:50;100451.69;;;8.30;64.54
73910;BME280;62245;48.070;7.874;2024-01-30T04:39:16;100455.28;;;8.13;64.86
73910;BME280;62245;48.070;7.874;2024-01-30T04:41:41;100465.34;;;8.01;65.65
73910;BME280;62245;48.070;7.874;2024-01-30T04:44:06;100457.16;;;7.94;65.97
73910;BME280;62245;48.070;7.874;2024-01-30T04:46:32;100459.09;;;7.84;66.11
73910;BME280;62245;48.070;7.874;2024-01-30T04:48:59;100459.06;;;7.76;66.71
73910;BME280;62245;48.070;7.874;2024-01-30T04:51:25;100460.81;;;7.68;66.74
73910;BME280;62245;48.070;7.874;2024-01-30T04:53:50;100459.31;;;7.65;66.68
73910;BME280;62245;48.070;7.874;2024-01-30T04:56:15;100466.09;;;7.60;66.89
73910;BME280;62245;48.070;7.874;2024-01-30T04:58:40;100452.06;;;7.49;67.10
73910;BME280;62245;48.070;7.874;2024-01-30T05:01:06;100463.81;;;7.47;67.41
73910;BME280;62245;48.070;7.874;2024-01-30T05:03:33;100471.44;;;7.42;67.98
73910;BME280;62245;48.070;7.874;2024-01-30T05:05:59;100465.06;;;7.35;67.92
73910;BME280;62245;48.070;7.874;2024-01-30T05:08:25;100462.31;;;7.27;68.47
73910;BME280;62245;48.070;7.874;2024-01-30T05:10:50;100463.09;;;7.19;69.35
73910;BME280;62245;48.070;7.874;2024-01-30T05:13:15;100464.25;;;7.16;69.08
73910;BME280;62245;48.070;7.874;2024-01-30T05:15:40;100469.56;;;7.16;69.29
73910;BME280;62245;48.070;7.874;2024-01-30T05:18:06;100476.16;;;7.12;69.39
73910;BME280;62245;48.070;7.874;2024-01-30T05:20:31;100467.66;;;7.09;69.24
73910;BME280;62245;48.070;7.874;2024-01-30T05:22:56;100471.75;;;7.03;69.18
73910;BME280;62245;48.070;7.874;2024-01-30T05:25:21;100472.44;;;7.05;69.76
73910;BME280;62245;48.070;7.874;2024-01-30T05:27:48;100483.19;;;7.04;69.81
73910;BME280;62245;48.070;7.874;2024-01-30T05:30:13;100470.53;;;6.98;69.50
73910;BME280;62245;48.070;7.874;2024-01-30T05:32:38;100477.19;;;7.02;69.82
73910;BME280;62245;48.070;7.874;2024-01-30T05:35:04;100475.84;;;6.98;69.47
73910;BME280;62245;48.070;7.874;2024-01-30T05:37:29;100480.84;;;6.83;69.76
73910;BME280;62245;48.070;7.874;2024-01-30T05:39:55;100488.06;;;6.91;69.49
73910;BME280;62245;48.070;7.874;2024-01-30T05:42:20;100479.69;;;6.86;69.61
73910;BME280;62245;48.070;7.874;2024-01-30T05:44:45;100477.38;;;6.82;69.80
73910;BME280;62245;48.070;7.874;2024-01-30T05:47:10;100486.44;;;6.80;70.18
73910;BME280;62245;48.070;7.874;2024-01-30T05:49:36;100481.44;;;6.77;70.36
73910;BME280;62245;48.070;7.874;2024-01-30T05:52:03;100481.19;;;6.70;70.28
73910;BME280;62245;48.070;7.874;2024-01-30T05:54:28;100484.84;;;6.69;70.80
73910;BME280;62245;48.070;7.874;2024-01-30T05:56:54;100477.34;;;6.65;71.12
73910;BME280;62245;48.070;7.874;2024-01-30T05:59:19;100484.13;;;6.67;71.01
73910;BME280;62245;48.070;7.874;2024-01-30T06:01:48;100478.19;;;6.65;71.19
73910;BME280;62245;48.070;7.874;2024-01-30T06:04:14;100484.59;;;6.63;70.93
73910;BME280;62245;48.070;7.874;2024-01-30T06:06:40;100486.50;;;6.70;70.13
73910;BME280;62245;48.070;7.874;2024-01-30T06:09:05;100476.22;;;6.85;68.57
73910;BME280;62245;48.070;7.874;2024-01-30T06:11:30;100488.06;;;6.91;68.15
73910;BME280;62245;48.070;7.874;2024-01-30T06:13:56;100481.09;;;7.07;66.67
73910;BME280;62245;48.070;7.874;2024-01-30T06:16:21;100482.88;;;7.42;65.30
73910;BME280;62245;48.070;7.874;2024-01-30T06:18:48;100468.84;;;7.76;63.77
73910;BME280;62245;48.070;7.874;2024-01-30T06:21:13;100472.88;;;7.88;63.04
73910;BME280;62245;48.070;7.874;2024-01-30T06:23:38;100472.31;;;8.02;62.80
73910;BME280;62245;48.070;7.874;2024-01-30T06:26:06;100484.13;;;8.33;62.61
73910;BME280;62245;48.070;7.874;2024-01-30T06:28:31;100478.84;;;8.42;62.56
73910;BME280;62245;48.070;7.874;2024-01-30T06:30:56;100489.97;;;8.87;61.56
73910;BME280;62245;48.070;7.874;2024-01-30T06:33:22;100476.69;;;9.12;61.32
73910;BME280;62245;48.070;7.874;2024-01-30T06:35:47;100482.00;;;9.20;61.24
73910;BME280;62245;48.070;7.874;2024-01-30T06:38:13;100498.84;;;9.28;61.10
73910;BME280;62245;48.070;7.874;2024-01-30T06:40:38;100489.38;;;9.34;61.25
73910;BME280;62245;48.070;7.874;2024-01-30T06:43:04;100488.03;;;9.38;60.91
73910;BME280;62245;48.070;7.874;2024-01-30T06:45:29;100491.84;;;9.52;60.53
73910;BME280;62245;48.070;7.874;2024-01-30T06:47:55;100488.19;;;9.53;60.44
73910;BME280;62245;48.070;7.874;2024-01-30T06:50:20;100488.84;;;9.63;60.16
73910;BME280;62245;48.070;7.874;2024-01-30T06:52:45;100505.78;;;9.86;60.06
73910;BME280;62245;48.070;7.874;2024-01-30T06:55:11;100483.63;;;10.02;59.01
73910;BME280;62245;48.070;7.874;2024-01-30T06:57:36;100498.59;;;10.19;58.47
73910;BME280;62245;48.070;7.874;2024-01-30T07:00:02;100501.53;;;10.40;58.24
73910;BME280;62245;48.070;7.874;2024-01-30T07:02:27;100492.22;;;10.36;58.15
73910;BME280;62245;48.070;7.874;2024-01-30T07:04:53;100497.59;;;10.28;58.33
73910;BME280;62245;48.070;7.874;2024-01-30T07:07:18;100502.75;;;10.21;58.71
73910;BME280;62245;48.070;7.874;2024-01-30T07:09:43;100506.25;;;10.22;58.63
73910;BME280;62245;48.070;7.874;2024-01-30T07:12:09;100508.06;;;10.13;58.79
73910;BME280;62245;48.070;7.874;2024-01-30T07:14:34;100515.25;;;10.21;58.56
73910;BME280;62245;48.070;7.874;2024-01-30T07:16:59;100514.25;;;10.14;59.03
73910;BME280;62245;48.070;7.874;2024-01-30T07:19:25;100514.09;;;10.24;58.76
73910;BME280;62245;48.070;7.874;2024-01-30T07:21:50;100520.94;;;10.18;59.00
73910;BME280;62245;48.070;7.874;2024-01-30T07:24:15;100513.69;;;10.43;58.01
73910;BME280;62245;48.070;7.874;2024-01-30T07:26:40;100514.56;;;10.35;58.30
73910;BME280;62245;48.070;7.874;2024-01-30T07:29:06;100512.91;;;10.34;58.56
73910;BME280;62245;48.070;7.874;2024-01-30T07:31:31;100510.22;;;10.34;58.34
73910;BME280;62245;48.070;7.874;2024-01-30T07:33:56;100516.72;;;10.32;58.76
73910;BME280;62245;48.070;7.874;2024-01-30T07:36:22;100522.06;;;10.32;58.90
73910;BME280;62245;48.070;7.874;2024-01-30T07:38:47;100519.75;;;10.29;58.75
73910;BME280;62245;48.070;7.874;2024-01-30T07:41:12;100527.56;;;10.30;58.81
73910;BME280;62245;48.070;7.874;2024-01-30T07:43:38;100518.91;;;10.28;58.75
73910;BME280;62245;48.070;7.874;2024-01-30T07:46:03;100521.38;;;10.46;58.12
73910;BME280;62245;48.070;7.874;2024-01-30T07:48:29;100528.03;;;10.42;58.57
73910;BME280;62245;48.070;7.874;2024-01-30T07:50:54;100532.19;;;10.44;58.42
73910;BME280;62245;48.070;7.874;2024-01-30T07:53:20;100527.88;;;10.43;57.67
73910;BME280;62245;48.070;7.874;2024-01-30T07:55:45;100541.69;;;10.55;57.58
73910;BME280;62245;48.070;7.874;2024-01-30T07:58:12;100526.97;;;10.59;57.35
73910;BME280;62245;48.070;7.874;2024-01-30T08:00:37;100527.94;;;10.66;56.91
73910;BME280;62245;48.070;7.874;2024-01-30T08:03:03;100530.44;;;10.68;57.29
73910;BME280;62245;48.070;7.874;2024-01-30T08:05:28;100531.09;;;10.70;56.84
73910;BME280;62245;48.070;7.874;2024-01-30T08:07:53;100519.75;;;10.68;56.76
73910;BME280;62245;48.070;7.874;2024-01-30T08:10:20;100530.56;;;10.74;57.18
73910;BME280;62245;48.070;7.874;2024-01-30T08:12:45;100526.38;;;10.80;56.86
73910;BME280;62245;48.070;7.874;2024-01-30T08:15:11;100532.84;;;10.85;56.99
73910;BME280;62245;48.070;7.874;2024-01-30T08:17:37;100522.47;;;10.90;56.89
73910;BME280;62245;48.070;7.874;2024-01-30T08:20:02;100530.41;;;11.07;56.40
73910;BME280;62245;48.070;7.874;2024-01-30T08:22:29;100520.53;;;11.07;56.02
73910;BME280;62245;48.070;7.874;2024-01-30T08:24:55;100520.59;;;10.99;56.62
73910;BME280;62245;48.070;7.874;2024-01-30T08:27:20;100525.75;;;11.01;56.52
73910;BME280;62245;48.070;7.874;2024-01-30T08:29:45;100523.09;;;11.01;56.45
73910;BME280;62245;48.070;7.874;2024-01-30T08:32:11;100533.59;;;11.02;56.03
73910;BME280;62245;48.070;7.874;2024-01-30T08:34:36;100520.91;;;11.04;56.04
73910;BME280;62245;48.070;7.874;2024-01-30T08:37:02;100530.94;;;11.02;56.24
73910;BME280;62245;48.070;7.874;2024-01-30T08:39:28;100522.63;;;10.97;57.03
73910;BME280;62245;48.070;7.874;2024-01-30T08:41:53;100513.94;;;10.95;56.74
73910;BME280;62245;48.070;7.874;2024-01-30T08:44:19;100509.13;;;10.90;57.10
73910;BME280;62245;48.070;7.874;2024-01-30T08:46:44;100512.28;;;10.94;56.50
73910;BME280;62245;48.070;7.874;2024-01-30T08:49:10;100515.25;;;10.99;56.98
73910;BME280;62245;48.070;7.874;2024-01-30T08:51:38;100509.31;;;10.89;57.35
73910;BME280;62245;48.070;7.874;2024-01-30T08:54:03;100511.78;;;10.90;57.32
73910;BME280;62245;48.070;7.874;2024-01-30T08:56:29;100513.28;;;10.93;57.12
73910;BME280;62245;48.070;7.874;2024-01-30T08:58:54;100512.94;;;10.96;56.99
73910;BME280;62245;48.070;7.874;2024-01-30T09:01:19;100498.47;;;10.82;57.08
73910;BME280;62245;48.070;7.874;2024-01-30T09:03:44;100508.44;;;10.96;57.20
73910;BME280;62245;48.070;7.874;2024-01-30T09:06:11;100513.59;;;10.98;57.53
73910;BME280;62245;48.070;7.874;2024-01-30T09:08:37;100513.94;;;10.95;56.87
73910;BME280;62245;48.070;7.874;2024-01-30T09:11:09;100511.56;;;11.00;56.74
73910;BME280;62245;48.070;7.874;2024-01-30T09:13:35;100522.56;;;11.05;56.25
73910;BME280;62245;48.070;7.874;2024-01-30T09:16:00;100521.91;;;11.03;56.86
73910;BME280;62245;48.070;7.874;2024-01-30T09:18:26;100530.41;;;11.07;56.64
73910;BME280;62245;48.070;7.874;2024-01-30T09:20:51;100531.25;;;10.99;57.18
73910;BME280;62245;48.070;7.874;2024-01-30T09:23:16;100537.22;;;11.09;56.50
73910;BME280;62245;48.070;7.874;2024-01-30T09:25:43;100525.88;;;11.07;57.10
73910;BME280;62245;48.070;7.874;2024-01-30T09:28:09;100553.19;;;11.17;55.41
73910;BME280;62245;48.070;7.874;2024-01-30T09:30:34;100537.50;;;11.22;55.97
73910;BME280;62245;48.070;7.874;2024-01-30T09:32:59;100541.28;;;11.28;55.65
73910;BME280;62245;48.070;7.874;2024-01-30T09:35:25;100549.00;;;11.23;56.49
73910;BME280;62245;48.070;7.874;2024-01-30T09:37:50;100545.78;;;11.27;55.91
73910;BME280;62245;48.070;7.874;2024-01-30T09:40:17;100554.94;;;11.33;55.49
73910;BME280;62245;48.070;7.874;2024-01-30T09:42:46;100551.44;;;11.32;55.79
73910;BME280;62245;48.070;7.874;2024-01-30T09:45:13;100565.50;;;11.26;57.05
73910;BME280;62245;48.070;7.874;2024-01-30T09:47:43;100566.22;;;11.20;56.86
73910;BME280;62245;48.070;7.874;2024-01-30T09:50:11;100562.72;;;11.20;57.04
73910;BME280;62245;48.070;7.874;2024-01-30T09:52:36;100576.41;;;11.17;56.80
73910;BME280;62245;48.070;7.874;2024-01-30T09:55:03;100571.66;;;11.27;55.81
73910;BME280;62245;48.070;7.874;2024-01-30T09:57:29;100573.69;;;11.25;56.54
73910;BME280;62245;48.070;7.874;2024-01-30T09:59:54;100581.22;;;11.21;56.95
73910;BME280;62245;48.070;7.874;2024-01-30T10:02:20;100582.34;;;11.27;55.58
73910;BME280;62245;48.070;7.874;2024-01-30T10:04:49;100582.84;;;11.30;55.74
73910;BME280;62245;48.070;7.874;2024-01-30T10:07:15;100573.84;;;11.31;55.81
73910;BME280;62245;48.070;7.874;2024-01-30T10:09:41;100575.34;;;11.26;55.87
73910;BME280;62245;48.070;7.874;2024-01-30T10:12:07;100574.19;;;11.28;56.01
73910;BME280;62245;48.070;7.874;2024-01-30T10:14:33;100576.97;;;11.35;55.87
73910;BME280;62245;48.070;7.874;2024-01-30T10:16:59;100563.97;;;11.32;56.47
73910;BME280;62245;48.070;7.874;2024-01-30T10:19:24;100561.47;;;11.30;56.20
73910;BME280;62245;48.070;7.874;2024-01-30T10:21:49;100563.44;;;11.37;55.83
73910;BME280;62245;48.070;7.874;2024-01-30T10:24:15;100577.06;;;11.50;56.37
73910;BME280;62245;48.070;7.874;2024-01-30T10:26:40;100566.25;;;11.66;55.69
73910;BME280;62245;48.070;7.874;2024-01-30T10:29:08;100569.53;;;11.76;55.11
73910;BME280;62245;48.070;7.874;2024-01-30T10:31:33;100562.44;;;11.83;54.33
73910;BME280;62245;48.070;7.874;2024-01-30T10:33:59;100555.94;;;12.00;54.42
73910;BME280;62245;48.070;7.874;2024-01-30T10:36:28;100550.44;;;12.17;52.95
73910;BME280;62245;48.070;7.874;2024-01-30T10:38:58;100550.16;;;12.26;53.28
73910;BME280;62245;48.070;7.874;2024-01-30T10:41:27;100549.50;;;12.68;52.61
73910;BME280;62245;48.070;7.874;2024-01-30T10:44:02;100547.53;;;12.92;50.68
73910;BME280;62245;48.070;7.874;2024-01-30T10:46:31;100544.69;;;12.78;51.37
73910;BME280;62245;48.070;7.874;2024-01-30T10:48:57;100551.53;;;12.66;50.58
73910;BME280;62245;48.070;7.874;2024-01-30T10:51:26;100553.75;;;12.48;51.31
73910;BME280;62245;48.070;7.874;2024-01-30T10:53:52;100558.84;;;12.43;51.09
73910;BME280;62245;48.070;7.874;2024-01-30T10:56:20;100553.84;;;12.40;51.77
73910;BME280;62245;48.070;7.874;2024-01-30T10:58:46;100550.63;;;12.44;51.50
73910;BME280;62245;48.070;7.874;2024-01-30T11:01:12;100552.19;;;12.39;51.82
73910;BME280;62245;48.070;7.874;2024-01-30T11:03:38;100546.19;;;12.66;51.26
73910;BME280;62245;48.070;7.874;2024-01-30T11:06:03;100542.25;;;12.98;51.75
73910;BME280;62245;48.070;7.874;2024-01-30T11:08:32;100542.06;;;13.14;50.51
73910;BME280;62245;48.070;7.874;2024-01-30T11:10:58;100552.44;;;13.24;50.85
73910;BME280;62245;48.070;7.874;2024-01-30T11:13:28;100550.81;;;13.44;50.54
73910;BME280;62245;48.070;7.874;2024-01-30T11:15:54;100555.28;;;13.37;50.20
73910;BME280;62245;48.070;7.874;2024-01-30T11:18:24;100541.63;;;13.53;50.73
73910;BME280;62245;48.070;7.874;2024-01-30T11:20:50;100540.72;;;13.68;49.59
73910;BME280;62245;48.070;7.874;2024-01-30T11:23:15;100544.63;;;13.23;50.93
73910;BME280;62245;48.070;7.874;2024-01-30T11:25:40;100548.53;;;13.05;52.30
73910;BME280;62245;48.070;7.874;2024-01-30T11:28:13;100543.56;;;12.88;52.44
73910;BME280;62245;48.070;7.874;2024-01-30T11:30:40;100526.84;;;12.85;52.85
73910;BME280;62245;48.070;7.874;2024-01-30T11:35:35;100516.50;;;12.82;52.48
73910;BME280;62245;48.070;7.874;2024-01-30T11:38:02;100516.13;;;12.85;52.68
73910;BME280;62245;48.070;7.874;2024-01-30T11:40:29;100518.81;;;12.85;52.61
73910;BME280;62245;48.070;7.874;2024-01-30T11:42:58;100536.81;;;12.92;52.84
73910;BME280;62245;48.070;7.874;2024-01-30T11:45:24;100529.41;;;12.94;53.30
73910;BME280;62245;48.070;7.874;2024-01-30T11:47:49;100528.41;;;12.95;53.33
73910;BME280;62245;48.070;7.874;2024-01-30T11:50:14;100525.03;;;13.07;52.93
73910;BME280;62245;48.070;7.874;2024-01-30T11:52:40;100528.81;;;13.13;53.58
73910;BME280;62245;48.070;7.874;2024-01-30T11:55:06;100515.38;;;13.98;51.98
73910;BME280;62245;48.070;7.874;2024-01-30T11:57:33;100516.66;;;16.31;46.88
73910;BME280;62245;48.070;7.874;2024-01-30T12:00:00;100501.19;;;17.78;43.53
73910;BME280;62245;48.070;7.874;2024-01-30T12:02:25;100517.41;;;17.47;43.52
73910;BME280;62245;48.070;7.874;2024-01-30T12:04:50;100503.00;;;16.12;45.56
73910;BME280;62245;48.070;7.874;2024-01-30T12:07:16;100520.66;;;14.88;48.14
73910;BME280;62245;48.070;7.874;2024-01-30T12:09:42;100526.88;;;14.48;49.28
73910;BME280;62245;48.070;7.874;2024-01-30T12:12:07;100514.44;;;14.12;50.31
73910;BME280;62245;48.070;7.874;2024-01-30T12:14:38;100522.34;;;13.92;50.71
73910;BME280;62245;48.070;7.874;2024-01-30T12:17:04;100516.97;;;13.92;51.22
73910;BME280;62245;48.070;7.874;2024-01-30T12:19:29;100518.19;;;13.83;51.28
73910;BME280;62245;48.070;7.874;2024-01-30T12:21:56;100515.38;;;13.70;52.82
73910;BME280;62245;48.070;7.874;2024-01-30T12:24:22;100522.34;;;13.43;53.12
73910;BME280;62245;48.070;7.874;2024-01-30T12:26:48;100516.16;;;13.21;53.13
73910;BME280;62245;48.070;7.874;2024-01-30T12:29:14;100518.47;;;13.10;53.21
73910;BME280;62245;48.070;7.874;2024-01-30T12:31:42;100519.06;;;13.05;53.54
73910;BME280;62245;48.070;7.874;2024-01-30T12:34:07;100520.31;;;12.88;54.84
73910;BME280;62245;48.070;7.874;2024-01-30T12:36:33;100506.19;;;12.79;55.28
73910;BME280;62245;48.070;7.874;2024-01-30T12:38:59;100519.84;;;12.84;55.57
73910;BME280;62245;48.070;7.874;2024-01-30T12:41:25;100518.28;;;12.75;56.18
73910;BME280;62245;48.070;7.874;2024-01-30T12:43:54;100519.75;;;12.78;56.54
73910;BME280;62245;48.070;7.874;2024-01-30T12:46:19;100505.34;;;12.79;56.51
73910;BME280;62245;48.070;7.874;2024-01-30T12:48:44;100507.19;;;12.78;56.90
73910;BME280;62245;48.070;7.874;2024-01-30T12:51:09;100509.66;;;12.80;57.11
73910;BME280;62245;48.070;7.874;2024-01-30T12:53:35;100507.94;;;12.72;58.27
73910;BME280;62245;48.070;7.874;2024-01-30T12:56:00;100498.53;;;12.76;57.58
73910;BME280;62245;48.070;7.874;2024-01-30T12:58:25;100501.63;;;12.80;57.06
73910;BME280;62245;48.070;7.874;2024-01-30T13:00:51;100504.97;;;12.82;56.95
73910;BME280;62245;48.070;7.874;2024-01-30T13:03:16;100501.19;;;12.76;57.07
73910;BME280;62245;48.070;7.874;2024-01-30T13:05:42;100503.94;;;12.83;57.00
73910;BME280;62245;48.070;7.874;2024-01-30T13:08:07;100506.25;;;12.86;56.05
73910;BME280;62245;48.070;7.874;2024-01-30T13:10:33;100510.59;;;12.87;57.01
73910;BME280;62245;48.070;7.874;2024-01-30T13:12:58;100499.25;;;12.85;56.38
73910;BME280;62245;48.070;7.874;2024-01-30T13:15:23;100505.50;;;12.92;55.90
73910;BME280;62245;48.070;7.874;2024-01-30T13:17:49;100508.00;;;12.94;55.69
73910;BME280;62245;48.070;7.874;2024-01-30T13:20:15;100507.16;;;12.93;55.70
73910;BME280;62245;48.070;7.874;2024-01-30T13:22:44;100504.66;;;12.92;55.64
73910;BME280;62245;48.070;7.874;2024-01-30T13:25:09;100505.97;;;12.96;56.46
73910;BME280;62245;48.070;7.874;2024-01-30T13:27:35;100505.56;;;12.99;55.90
73910;BME280;62245;48.070;7.874;2024-01-30T13:30:01;100499.97;;;12.94;56.35
73910;BME280;62245;48.070;7.874;2024-01-30T13:32:26;100495.63;;;12.93;56.41
73910;BME280;62245;48.070;7.874;2024-01-30T13:34:51;100497.47;;;12.92;56.67
73910;BME280;62245;48.070;7.874;2024-01-30T13:37:17;100490.25;;;12.93;56.35
73910;BME280;62245;48.070;7.874;2024-01-30T13:39:42;100507.81;;;12.95;56.99
73910;BME280;62245;48.070;7.874;2024-01-30T13:42:07;100506.78;;;12.96;56.77
73910;BME280;62245;48.070;7.874;2024-01-30T13:44:34;100495.44;;;12.94;56.43
73910;BME280;62245;48.070;7.874;2024-01-30T13:47:00;100499.06;;;12.87;56.87
73910;BME280;62245;48.070;7.874;2024-01-30T13:49:25;100504.59;;;12.85;57.34
73910;BME280;62245;48.070;7.874;2024-01-30T13:51:50;100502.34;;;12.89;56.76
73910;BME280;62245;48.070;7.874;2024-01-30T13:54:15;100492.69;;;12.88;56.96
73910;BME280;62245;48.070;7.874;2024-01-30T13:56:41;100496.56;;;12.85;57.85
73910;BME280;62245;48.070;7.874;2024-01-30T13:59:06;100496.38;;;12.87;57.00
73910;BME280;62245;48.070;7.874;2024-01-30T14:01:32;100499.25;;;12.85;57.12
73910;BME280;62245;48.070;7.874;2024-01-30T14:03:57;100488.53;;;12.85;57.75
73910;BME280;62245;48.070;7.874;2024-01-30T14:06:23;100505.44;;;12.85;57.79
73910;BME280;62245;48.070;7.874;2024-01-30T14:08:48;100506.63;;;12.83;58.00
73910;BME280;62245;48.070;7.874;2024-01-30T14:11:13;100509.13;;;12.84;58.13
73910;BME280;62245;48.070;7.874;2024-01-30T14:13:38;100505.78;;;12.82;58.29
73910;BME280;62245;48.070;7.874;2024-01-30T14:16:04;100502.09;;;12.83;58.38
73910;BME280;62245;48.070;7.874;2024-01-30T14:18:30;100500.63;;;12.81;58.53
73910;BME280;62245;48.070;7.874;2024-01-30T14:20:55;100502.47;;;12.80;58.30
73910;BME280;62245;48.070;7.874;2024-01-30T14:23:21;100508.41;;;12.76;58.40
73910;BME280;62245;48.070;7.874;2024-01-30T14:25:46;100512.28;;;12.73;59.08
73910;BME280;62245;48.070;7.874;2024-01-30T14:28:12;100515.78;;;12.74;59.22
73910;BME280;62245;48.070;7.874;2024-01-30T14:30:37;100516.81;;;12.73;59.14
73910;BME280;62245;48.070;7.874;2024-01-30T14:33:03;100513.88;;;12.68;59.35
73910;BME280;62245;48.070;7.874;2024-01-30T14:35:28;100529.09;;;12.67;59.97
73910;BME280;62245;48.070;7.874;2024-01-30T14:37:53;100522.44;;;12.63;60.03
73910;BME280;62245;48.070;7.874;2024-01-30T14:40:19;100517.84;;;12.57;59.53
73910;BME280;62245;48.070;7.874;2024-01-30T14:42:45;100519.25;;;12.53;59.34
73910;BME280;62245;48.070;7.874;2024-01-30T14:45:10;100514.91;;;12.52;59.28
73910;BME280;62245;48.070;7.874;2024-01-30T14:47:36;100523.28;;;12.49;60.15
73910;BME280;62245;48.070;7.874;2024-01-30T14:50:03;100519.78;;;12.48;59.89
73910;BME280;62245;48.070;7.874;2024-01-30T14:52:29;100512.50;;;12.42;60.18
73910;BME280;62245;48.070;7.874;2024-01-30T14:54:54;100527.56;;;12.43;60.19
73910;BME280;62245;48.070;7.874;2024-01-30T14:57:20;100517.56;;;12.37;60.43
73910;BME280;62245;48.070;7.874;2024-01-30T14:59:45;100527.44;;;12.37;60.96
73910;BME280;62245;48.070;7.874;2024-01-30T15:02:10;100533.00;;;12.35;61.18
73910;BME280;62245;48.070;7.874;2024-01-30T15:04:36;100530.22;;;12.29;61.58
73910;BME280;62245;48.070;7.874;2024-01-30T15:07:01;100514.47;;;12.19;62.01
73910;BME280;62245;48.070;7.874;2024-01-30T15:09:27;100516.91;;;12.21;62.10
73910;BME280;62245;48.070;7.874;2024-01-30T15:11:52;100509.28;;;12.18;62.28
73910;BME280;62245;48.070;7.874;2024-01-30T15:14:18;100519.34;;;12.16;62.32
73910;BME280;62245;48.070;7.874;2024-01-30T15:16:43;100522.00;;;12.16;62.01
73910;BME280;62245;48.070;7.874;2024-01-30T15:19:08;100519.69;;;12.13;61.68
73910;BME280;62245;48.070;7.874;2024-01-30T15:21:34;100527.72;;;12.13;62.26
73910;BME280;62245;48.070;7.874;2024-01-30T15:23:59;100514.06;;;12.07;62.64
73910;BME280;62245;48.070;7.874;2024-01-30T15:26:25;100528.28;;;12.08;62.53
73910;BME280;62245;48.070;7.874;2024-01-30T15:28:51;100523.09;;;12.06;62.25
73910;BME280;62245;48.070;7.874;2024-01-30T15:31:16;100521.44;;;12.05;62.14
73910;BME280;62245;48.070;7.874;2024-01-30T15:33:41;100525.13;;;12.04;62.35
73910;BME280;62245;48.070;7.874;2024-01-30T15:36:07;100521.16;;;12.00;62.15
73910;BME280;62245;48.070;7.874;2024-01-30T15:38:34;100528.34;;;12.00;62.05
73910;BME280;62245;48.070;7.874;2024-01-30T15:40:59;100532.22;;;11.97;62.55
73910;BME280;62245;48.070;7.874;2024-01-30T15:43:24;100527.22;;;11.94;62.29
73910;BME280;62245;48.070;7.874;2024-01-30T15:45:50;100530.09;;;11.93;62.55